createdAt,value
2023-02-21T00:00:37.043Z,99.9
2023-02-21T00:02:43.319Z,99.9
2023-02-21T00:04:49.596Z,99.9
2023-02-21T00:06:58.651Z,99.9
2023-02-21T00:09:04.920Z,99.9
2023-02-21T00:11:11.225Z,99.9
2023-02-21T00:15:37.126Z,99.9
2023-02-21T00:19:52.491Z,99.9
2023-02-21T00:21:58.726Z,99.9
2023-02-21T00:24:04.995Z,99.9
2023-02-21T00:26:11.259Z,99.9
2023-02-21T00:28:17.531Z,99.9
2023-02-21T00:30:23.934Z,99.9
2023-02-21T00:32:30.108Z,99.9
2023-02-21T00:34:39.123Z,99.9
2023-02-21T00:38:51.652Z,99.9
2023-02-21T00:40:57.901Z,1
2023-02-21T00:45:10.402Z,1
2023-02-21T00:49:25.739Z,1
2023-02-21T00:51:32.047Z,1
2023-02-21T00:53:38.292Z,1
2023-02-21T00:55:44.553Z,1
2023-02-21T00:57:50.825Z,1
2023-02-21T00:59:57.112Z,1
2023-02-21T01:02:03.331Z,1
2023-02-21T01:06:18.668Z,1
2023-02-21T01:09:29.451Z,1
2023-02-21T01:11:35.728Z,1
2023-02-21T01:13:41.974Z,1
2023-02-21T01:15:48.296Z,1
2023-02-21T01:17:57.307Z,1
2023-02-21T01:22:09.829Z,1
2023-02-21T01:26:22.338Z,1
2023-02-21T01:28:28.595Z,1
2023-02-21T01:32:43.919Z,1
2023-02-21T01:39:02.703Z,1
2023-02-21T01:41:09.043Z,1
2023-02-21T01:43:15.217Z,1
2023-02-21T01:45:21.511Z,1
2023-02-21T01:47:30.553Z,1
2023-02-21T01:49:36.796Z,1
2023-02-21T01:58:03.723Z,1
2023-02-21T02:00:08.107Z,1
2023-02-21T02:02:17.193Z,1
2023-02-21T02:04:23.473Z,1
2023-02-21T02:06:29.682Z,1
2023-02-21T02:07:34.246Z,1
2023-02-21T02:16:02.128Z,1
2023-02-21T02:18:08.464Z,3.2
2023-02-21T02:20:14.580Z,17.1
2023-02-21T02:22:20.816Z,30.4
2023-02-21T02:24:27.089Z,39.3
2023-02-21T02:28:39.593Z,51.1
2023-02-21T02:30:48.692Z,56.8
2023-02-21T02:37:07.429Z,57.7
2023-02-21T02:41:19.956Z,58.4
2023-02-21T02:43:26.202Z,58.8
2023-02-21T02:45:35.290Z,59
2023-02-21T02:47:41.532Z,58.4
2023-02-21T02:49:47.765Z,57.2
2023-02-21T02:51:54.045Z,57.4
2023-02-21T02:54:00.287Z,56.9
2023-02-21T03:02:28.094Z,88
2023-02-21T03:04:34.352Z,75.1
2023-02-21T03:05:38.887Z,73.9
2023-02-21T03:09:51.395Z,91.4
2023-02-21T03:11:57.660Z,92.5
2023-02-21T03:14:06.725Z,93.1
2023-02-21T03:16:13.047Z,93.5
2023-02-21T03:18:19.232Z,93.1
2023-02-21T03:20:25.512Z,63
2023-02-21T03:24:38.021Z,61.4
2023-02-21T03:37:18.378Z,60
2023-02-21T03:39:24.631Z,88.9
2023-02-21T03:41:30.875Z,89
2023-02-21T03:43:39.977Z,95.5
2023-02-21T03:45:46.232Z,99.6
2023-02-21T03:47:52.481Z,99.8
2023-02-21T03:49:58.736Z,99.8
2023-02-21T03:54:11.268Z,99.8
2023-02-21T03:56:17.539Z,99.8
2023-02-21T04:02:39.128Z,99.9
2023-02-21T04:05:02.994Z,99.9
2023-02-21T04:07:09.256Z,99.9
2023-02-21T04:19:51.154Z,99.9
2023-02-21T04:21:57.401Z,99.9
2023-02-21T04:26:12.729Z,99.9
2023-02-21T04:28:19.003Z,99.9
2023-02-21T04:30:25.318Z,99.9
2023-02-21T04:32:31.586Z,99.9
2023-02-21T04:34:37.792Z,99.9
2023-02-21T04:36:44.061Z,99.9
2023-02-21T04:38:50.305Z,99.9
2023-02-21T04:40:59.369Z,99.9
2023-02-21T04:43:05.610Z,99.9
2023-02-21T04:45:11.905Z,99.9
2023-02-21T04:49:24.419Z,99.9
2023-02-21T04:53:36.908Z,99.9
2023-02-21T04:55:45.970Z,99.9
2023-02-21T04:59:58.532Z,99.9
2023-02-21T05:01:03.061Z,99.9
2023-02-21T05:03:09.291Z,99.9
2023-02-21T05:05:15.737Z,99.9
2023-02-21T05:07:21.784Z,1
2023-02-21T05:11:37.122Z,1
2023-02-21T05:13:43.390Z,1
2023-02-21T05:15:49.640Z,1
2023-02-21T05:17:55.891Z,1
2023-02-21T05:20:02.181Z,1
2023-02-21T05:22:08.408Z,1
2023-02-21T05:24:17.489Z,1
2023-02-21T05:26:23.719Z,1
2023-02-21T05:28:30.008Z,1
2023-02-21T05:30:36.328Z,25.9
2023-02-21T05:32:42.497Z,30.6
2023-02-21T05:34:48.848Z,31.7
2023-02-21T05:36:55.012Z,59.1
2023-02-21T05:39:04.086Z,87.4
2023-02-21T05:41:10.333Z,98.7
2023-02-21T05:43:16.601Z,99.2
2023-02-21T05:45:22.820Z,99.3
2023-02-21T05:47:29.054Z,99.5
2023-02-21T05:49:35.336Z,99.6
2023-02-21T05:51:41.623Z,99.8
2023-02-21T05:53:50.655Z,99.9
2023-02-21T05:55:56.913Z,99.9
2023-02-21T05:58:03.453Z,99.9
2023-02-21T05:59:07.708Z,99.9
2023-02-21T06:01:14.367Z,99.9
2023-02-21T06:03:20.259Z,99.9
2023-02-21T06:05:26.445Z,99.9
2023-02-21T06:07:35.536Z,99.9
2023-02-21T06:09:41.777Z,99.9
2023-02-21T06:11:48.024Z,99.9
2023-02-21T06:13:54.270Z,99.9
2023-02-21T06:16:00.587Z,99.9
2023-02-21T06:18:06.771Z,99.9
2023-02-21T06:20:13.037Z,99.9
2023-02-21T06:22:22.103Z,99.9
2023-02-21T06:24:28.342Z,99.9
2023-02-21T06:28:40.853Z,99.9
2023-02-21T06:30:47.273Z,99.9
2023-02-21T06:32:53.367Z,99.9
2023-02-21T06:34:59.622Z,99.9
2023-02-21T06:37:08.678Z,99.9
2023-02-21T06:39:14.929Z,99.9
2023-02-21T06:41:21.186Z,99.9
2023-02-21T06:43:27.434Z,99.9
2023-02-21T06:49:46.174Z,99.9
2023-02-21T06:51:55.291Z,99.9
2023-02-21T06:54:01.492Z,99.9
2023-02-21T06:56:07.756Z,99.9
2023-02-21T06:59:18.533Z,99.9
2023-02-21T07:01:24.791Z,99.9
2023-02-21T07:03:31.046Z,99.9
2023-02-21T07:05:40.113Z,99.9
2023-02-21T07:07:46.344Z,99.9
2023-02-21T07:09:52.583Z,99.9
2023-02-21T07:11:58.794Z,99.9
2023-02-21T07:14:05.049Z,99.9
2023-02-21T07:16:11.402Z,99.9
2023-02-21T07:18:17.524Z,99.9
2023-02-21T07:20:26.573Z,99.9
2023-02-21T07:22:32.845Z,99.9
2023-02-21T07:26:45.330Z,99.9
2023-02-21T07:28:51.605Z,99.9
2023-02-21T07:33:04.083Z,99.9
2023-02-21T07:35:13.139Z,99.9
2023-02-21T07:37:19.378Z,99.9
2023-02-21T07:41:31.888Z,99.9
2023-02-21T07:47:50.631Z,99.9
2023-02-21T07:58:38.243Z,99.9
2023-02-21T08:00:44.517Z,1
2023-02-21T08:02:53.544Z,1
2023-02-21T08:04:59.861Z,1
2023-02-21T08:07:06.020Z,1
2023-02-21T08:09:12.264Z,1
2023-02-21T08:11:18.523Z,1
2023-02-21T08:13:24.767Z,1
2023-02-21T08:15:31.103Z,1
2023-02-21T08:17:40.066Z,1
2023-02-21T08:19:46.309Z,1
2023-02-21T08:28:11.293Z,1
2023-02-21T08:30:17.591Z,1
2023-02-21T08:32:26.668Z,1
2023-02-21T08:42:57.849Z,1
2023-02-21T08:45:04.112Z,1
2023-02-21T08:47:13.166Z,1
2023-02-21T08:49:19.397Z,1
2023-02-21T08:51:25.664Z,1
2023-02-21T08:52:30.185Z,1
2023-02-21T08:54:36.455Z,1
2023-02-21T08:56:42.699Z,1
2023-02-21T08:58:48.933Z,1
2023-02-21T09:00:58.073Z,1
2023-02-21T09:03:04.273Z,1
2023-02-21T09:05:10.490Z,1
2023-02-21T09:07:16.823Z,1
2023-02-21T09:09:22.980Z,1
2023-02-21T09:11:29.250Z,1
2023-02-21T09:17:50.814Z,1
2023-02-21T09:19:57.061Z,1
2023-02-21T09:22:03.284Z,1
2023-02-21T09:24:09.539Z,1
2023-02-21T09:26:15.785Z,1
2023-02-21T09:28:22.042Z,1
2023-02-21T09:30:31.141Z,1
2023-02-21T09:32:37.429Z,1
2023-02-21T09:34:43.619Z,1
2023-02-21T09:38:56.368Z,1
2023-02-21T09:41:02.210Z,1
2023-02-21T09:45:17.594Z,99.9
2023-02-21T09:49:30.064Z,99.9
2023-02-21T09:50:34.570Z,99.9
2023-02-21T09:52:40.851Z,99.9
2023-02-21T09:54:47.139Z,99.9
2023-02-21T09:56:53.346Z,99.9
2023-02-21T09:59:02.404Z,99.9
2023-02-21T10:01:08.705Z,99.9
2023-02-21T10:03:14.992Z,99.9
2023-02-21T10:05:21.182Z,99.9
2023-02-21T10:07:27.438Z,99.9
2023-02-21T10:11:39.945Z,99.9
2023-02-21T10:13:49.011Z,99.9
2023-02-21T10:15:55.260Z,99.9
2023-02-21T10:18:01.546Z,99.9
2023-02-21T10:20:09.369Z,99.9
2023-02-21T10:24:21.843Z,1
2023-02-21T10:26:28.102Z,99.9
2023-02-21T10:28:37.165Z,99.9
2023-02-21T10:32:49.726Z,99.9
2023-02-21T10:39:08.470Z,99.9
2023-02-21T10:41:15.057Z,99.9
2023-02-21T10:43:23.814Z,99.9
2023-02-21T10:45:30.103Z,99.1
2023-02-21T10:47:36.340Z,89
2023-02-21T10:48:40.868Z,63.1
2023-02-21T10:50:47.149Z,62.7
2023-02-21T10:54:59.660Z,59
2023-02-21T10:57:08.732Z,50.2
2023-02-21T11:01:21.320Z,18.3
2023-02-21T11:03:27.687Z,1
2023-02-21T11:05:33.795Z,29.1
2023-02-21T11:07:40.093Z,7.6
2023-02-21T11:09:46.332Z,1
2023-02-21T11:11:55.415Z,1
2023-02-21T11:14:01.660Z,6.1
2023-02-21T11:16:07.971Z,58.9
2023-02-21T11:18:14.228Z,99.6
2023-02-21T11:20:20.499Z,99.8
2023-02-21T11:22:26.767Z,99.8
2023-02-21T11:24:33.006Z,99.8
2023-02-21T11:26:42.095Z,99.8
2023-02-21T11:28:48.390Z,99.8
2023-02-21T11:30:54.687Z,99.9
2023-02-21T11:33:00.892Z,99.9
2023-02-21T11:35:07.184Z,99.9
2023-02-21T11:37:13.425Z,99.9
2023-02-21T11:39:19.682Z,99.9
2023-02-21T11:48:01.033Z,99.9
2023-02-21T11:50:07.290Z,99.9
2023-02-21T11:52:13.555Z,99.9
2023-02-21T11:54:22.621Z,99.9
2023-02-21T11:56:28.895Z,99.9
2023-02-21T11:58:35.159Z,99.9
2023-02-21T12:00:41.434Z,99.9
2023-02-21T12:02:47.811Z,99.9
2023-02-21T12:04:53.959Z,99.9
2023-02-21T12:07:00.227Z,99.9
2023-02-21T12:11:15.908Z,99.9
2023-02-21T12:13:21.854Z,99.9
2023-02-21T12:26:02.232Z,99.9
2023-02-21T12:30:14.772Z,99.9
2023-02-21T12:36:33.602Z,99.9
2023-02-21T12:38:42.597Z,99.9
2023-02-21T12:42:55.130Z,99.9
2023-02-21T12:43:59.658Z,99.9
2023-02-21T12:46:05.998Z,99.9
2023-02-21T12:48:12.214Z,99.9
2023-02-21T12:50:18.476Z,99.9
2023-02-21T12:52:27.525Z,99.9
2023-02-21T12:54:33.792Z,99.9
2023-02-21T12:56:40.092Z,99.9
2023-02-21T12:58:46.340Z,99.9
2023-02-21T13:00:52.596Z,99.9
2023-02-21T13:02:58.932Z,99.9
2023-02-21T13:05:05.133Z,99.9
2023-02-21T13:07:14.192Z,99.9
2023-02-21T13:11:26.701Z,99.9
2023-02-21T13:13:33.002Z,99.9
2023-02-21T13:15:39.244Z,99.9
2023-02-21T13:17:45.492Z,99.9
2023-02-21T13:19:51.765Z,99.9
2023-02-21T13:24:07.115Z,99.9
2023-02-21T13:26:13.382Z,99.9
2023-02-21T13:32:32.177Z,99.9
2023-02-21T13:38:53.791Z,99.9
2023-02-21T13:41:00.060Z,99.9
2023-02-21T13:46:17.140Z,99.9
2023-02-21T13:54:44.994Z,99.9
2023-02-21T13:56:51.281Z,99.9
2023-02-21T13:58:57.528Z,99.9
2023-02-21T14:03:10.109Z,99.9
2023-02-21T14:05:19.131Z,99.9
2023-02-21T14:07:25.385Z,99.9
2023-02-21T14:11:37.934Z,99.9
2023-02-21T14:13:44.169Z,99.9
2023-02-21T14:17:56.722Z,99.9
2023-02-21T14:20:05.841Z,99.9
2023-02-21T14:24:18.275Z,99.6
2023-02-21T14:26:24.564Z,84.7
2023-02-21T14:28:30.849Z,62.2
2023-02-21T14:34:52.482Z,86.9
2023-02-21T14:36:58.721Z,99.3
2023-02-21T14:39:05.011Z,28.7
2023-02-21T14:40:09.525Z,1
2023-02-21T14:42:15.814Z,1
2023-02-21T14:50:43.661Z,1
2023-02-21T14:52:49.910Z,1
2023-02-21T14:57:02.480Z,60
2023-02-21T15:01:15.434Z,33
2023-02-21T15:03:24.062Z,1
2023-02-21T15:05:30.325Z,1
2023-02-21T15:07:36.595Z,1
2023-02-21T15:09:42.862Z,1
2023-02-21T15:11:49.127Z,30.9
2023-02-21T15:13:55.384Z,60.1
2023-02-21T15:16:01.649Z,93.1
2023-02-21T15:22:25.016Z,99.8
2023-02-21T15:24:29.488Z,99.8
2023-02-21T15:28:42.026Z,99.8
2023-02-21T15:37:09.876Z,99.9
2023-02-21T15:41:40.078Z,99.9
2023-02-21T15:43:46.329Z,99.9
2023-02-21T15:45:55.462Z,99.9
2023-02-21T15:48:01.647Z,99.9
2023-02-21T15:50:07.948Z,1
2023-02-21T15:52:14.162Z,1
2023-02-21T15:54:20.448Z,1
2023-02-21T15:56:26.687Z,1
2023-02-21T15:58:32.970Z,1
2023-02-21T16:00:42.093Z,1
2023-02-21T16:02:48.278Z,1
2023-02-21T16:04:54.532Z,1
2023-02-21T16:07:00.787Z,1
2023-02-21T16:09:07.062Z,1
2023-02-21T16:11:13.648Z,1
2023-02-21T16:13:19.571Z,1
2023-02-21T16:19:41.142Z,1
2023-02-21T16:23:55.226Z,1
2023-02-21T16:26:01.471Z,1
2023-02-21T16:28:07.744Z,10.7
2023-02-21T16:32:23.074Z,17.8
2023-02-21T16:34:29.325Z,1
2023-02-21T16:35:33.831Z,1
2023-02-21T16:37:40.101Z,1
2023-02-21T16:39:46.357Z,1
2023-02-21T16:41:52.603Z,1
2023-02-21T16:44:01.686Z,1
2023-02-21T16:46:07.976Z,1
2023-02-21T16:48:14.176Z,1
2023-02-21T16:50:20.442Z,1
2023-02-21T16:52:28.844Z,1
2023-02-21T16:54:32.951Z,1
2023-02-21T16:56:39.200Z,1
2023-02-21T16:58:48.249Z,1
2023-02-21T17:00:54.498Z,1
2023-02-21T17:03:00.841Z,99.6
2023-02-21T17:05:06.997Z,99.8
2023-02-21T17:07:13.270Z,99.8
2023-02-21T17:09:19.515Z,99.8
2023-02-21T17:11:25.756Z,99.8
2023-02-21T17:13:34.816Z,99.8
2023-02-21T17:15:41.127Z,99.9
2023-02-21T17:19:53.585Z,99.9
2023-02-21T17:21:59.841Z,99.9
2023-02-21T17:24:06.080Z,99.9
2023-02-21T17:28:21.406Z,99.9
2023-02-21T17:30:27.760Z,99.9
2023-02-21T17:32:34.073Z,99.9
2023-02-21T17:33:38.476Z,99.9
2023-02-21T17:35:44.744Z,99.9
2023-02-21T17:37:50.992Z,99.9
2023-02-21T17:39:57.248Z,99.9
2023-02-21T17:42:06.303Z,99.9
2023-02-21T17:46:18.855Z,99.9
2023-02-21T17:48:25.088Z,99.9
2023-02-21T17:50:31.322Z,99.9
2023-02-21T17:52:37.589Z,99.9
2023-02-21T17:54:43.855Z,99.9
2023-02-21T17:56:52.909Z,99.9
2023-02-21T17:58:59.163Z,99.9
2023-02-21T18:01:05.451Z,1
2023-02-21T18:05:17.952Z,99.9
2023-02-21T18:07:24.215Z,99.9
2023-02-21T18:11:39.532Z,99.9
2023-02-21T18:13:45.797Z,99.9
2023-02-21T18:26:26.242Z,99.9
2023-02-21T18:30:38.798Z,99.9
2023-02-21T18:31:43.375Z,99.9
2023-02-21T18:33:49.530Z,99.9
2023-02-21T18:35:55.759Z,99.9
2023-02-21T18:38:02.052Z,99.9
2023-02-21T18:40:11.110Z,98.4
2023-02-21T18:42:17.380Z,97.5
2023-02-21T18:46:29.908Z,99.5
2023-02-21T18:48:36.134Z,99.7
2023-02-21T18:50:42.369Z,99.7
2023-02-21T18:52:48.655Z,99.8
2023-02-21T18:54:57.698Z,99.8
2023-02-21T18:57:03.965Z,99.8
2023-02-21T18:59:10.232Z,99.8
2023-02-21T19:01:16.729Z,99.9
2023-02-21T19:03:22.744Z,99.9
2023-02-21T19:09:44.310Z,99.9
2023-02-21T19:13:56.826Z,99.9
2023-02-21T19:20:15.585Z,99.9
2023-02-21T19:24:30.895Z,99.9
2023-02-21T19:26:37.175Z,99.9
2023-02-21T19:31:03.359Z,99.9
2023-02-21T19:33:09.563Z,99.9
2023-02-21T19:35:15.816Z,99.9
2023-02-21T19:37:24.897Z,99.9
2023-02-21T19:39:31.297Z,99.9
2023-02-21T19:41:37.418Z,99.9
2023-02-21T19:43:43.629Z,99.9
2023-02-21T19:45:49.899Z,99.9
2023-02-21T19:47:56.112Z,99.9
2023-02-21T19:52:11.426Z,99.9
2023-02-21T19:54:17.667Z,99.9
2023-02-21T20:00:36.433Z,99.9
2023-02-21T20:02:42.704Z,99.9
2023-02-21T20:06:57.955Z,99.9
2023-02-21T20:13:16.700Z,99.9
2023-02-21T20:17:29.214Z,99.9
2023-02-21T20:19:35.446Z,99.9
2023-02-21T20:21:44.475Z,99.9
2023-02-21T20:23:50.729Z,99.9
2023-02-21T20:25:57.004Z,99.9
2023-02-21T20:27:01.523Z,99.9
2023-02-21T20:31:14.407Z,99.9
2023-02-21T20:33:20.239Z,99.9
2023-02-21T20:35:29.303Z,99.9
2023-02-21T20:37:35.572Z,99.9
2023-02-21T20:39:41.799Z,99.9
2023-02-21T20:41:48.046Z,99.9
2023-02-21T20:43:54.271Z,99.9
2023-02-21T20:46:01.342Z,99.9
2023-02-21T20:48:07.535Z,99.9
2023-02-21T20:50:16.609Z,99.9
2023-02-21T20:54:29.050Z,99.9
2023-02-21T20:56:35.313Z,99.9
2023-02-21T20:58:41.545Z,99.9
2023-02-21T21:00:47.839Z,99.9
2023-02-21T21:02:54.052Z,99.9
2023-02-21T21:05:03.120Z,1
2023-02-21T21:07:09.349Z,1
2023-02-21T21:09:15.597Z,1
2023-02-21T21:11:22.052Z,1
2023-02-21T21:13:28.098Z,1
2023-02-21T21:15:34.359Z,1
2023-02-21T21:17:40.601Z,1
2023-02-21T21:21:55.872Z,1
2023-02-21T21:25:06.666Z,1
2023-02-21T21:27:12.908Z,1
2023-02-21T21:31:25.415Z,1
2023-02-21T21:33:34.474Z,1
2023-02-21T21:35:40.711Z,1
2023-02-21T21:37:46.954Z,10.2
2023-02-21T21:39:53.213Z,26.4
2023-02-21T21:41:59.450Z,27.9
2023-02-21T21:44:05.681Z,31.8
2023-02-21T21:46:12.002Z,57.7
2023-02-21T21:48:20.986Z,65.9
2023-02-21T21:50:27.244Z,66.8
2023-02-21T21:52:33.503Z,52.8
2023-02-21T21:54:39.747Z,53.5
2023-02-21T21:56:45.989Z,53
2023-02-21T21:58:52.236Z,58.8
2023-02-21T22:00:58.493Z,43.8
2023-02-21T22:03:07.589Z,33.8
2023-02-21T22:05:13.800Z,32
2023-02-21T22:07:20.086Z,31.8
2023-02-21T22:09:26.274Z,31.2
2023-02-21T22:15:45.052Z,1
2023-02-21T22:17:54.106Z,1
2023-02-21T22:23:11.141Z,1
2023-02-21T22:31:40.430Z,99.8
2023-02-21T22:33:46.678Z,99.8
2023-02-21T22:40:05.413Z,99.9
2023-02-21T22:44:17.935Z,99.9
2023-02-21T22:46:27.006Z,99.9
2023-02-21T22:48:33.204Z,99.9
2023-02-21T22:50:39.496Z,98.4
2023-02-21T22:52:45.689Z,60.4
2023-02-21T22:56:58.172Z,10.8
2023-02-21T22:59:04.437Z,1
2023-02-21T23:01:13.606Z,1
2023-02-21T23:11:44.756Z,2.6
2023-02-21T23:16:00.112Z,3.5
2023-02-21T23:18:06.310Z,1
2023-02-21T23:20:12.571Z,1
2023-02-21T23:22:32.352Z,1
2023-02-21T23:24:38.619Z,1
2023-02-21T23:26:44.869Z,99.6
2023-02-21T23:28:53.944Z,99.8
2023-02-21T23:31:00.244Z,99.8
2023-02-21T23:33:06.567Z,99.8
2023-02-21T23:35:12.649Z,99.8
2023-02-21T23:37:18.921Z,99.8
2023-02-21T23:39:25.155Z,99.9
2023-02-21T23:47:53.018Z,99.9
2023-02-21T23:56:17.957Z,1
2023-02-21T23:58:27.019Z,1
